sensor_id;sensor_type;location;lat;lon;timestamp;temperature;humidity
2999;DHT22;1509;51.964;7.628;2023-03-18T00:00:12;12.20;99.90
2999;DHT22;1509;51.964;7.628;2023-03-18T00:02:40;12.20;99.90
2999;DHT22;1509;51.964;7.628;2023-03-18T00:05:07;12.30;99.90
2999;DHT22;1509;51.964;7.628;2023-03-18T00:07:35;12.30;99.90
2999;DHT22;1509;51.964;7.628;2023-03-18T00:10:05;12.30;99.90
2999;DHT22;1509;51.964;7.628;2023-03-18T00:12:31;12.20;99.90
2999;DHT22;1509;51.964;7.628;2023-03-18T00:15:00;12.20;99.90
2999;DHT22;1509;51.964;7.628;2023-03-18T00:17:27;12.00;99.90
2999;DHT22;1509;51.964;7.628;2023-03-18T00:19:52;12.20;99.90
2999;DHT22;1509;51.964;7.628;2023-03-18T00:22:19;11.80;99.90
2999;DHT22;1509;51.964;7.628;2023-03-18T00:24:44;12.00;99.90
2999;DHT22;1509;51.964;7.628;2023-03-18T00:27:10;11.90;99.90
2999;DHT22;1509;51.964;7.628;2023-03-18T00:29:36;11.90;99.90
2999;DHT22;1509;51.964;7.628;2023-03-18T00:32:02;11.80;99.90
2999;DHT22;1509;51.964;7.628;2023-03-18T00:34:27;11.90;99.90
2999;DHT22;1509;51.964;7.628;2023-03-18T00:36:53;11.60;99.90
2999;DHT22;1509;51.964;7.628;2023-03-18T00:39:22;11.60;99.90
2999;DHT22;1509;51.964;7.628;2023-03-18T00:41:53;11.60;99.90
2999;DHT22;1509;51.964;7.628;2023-03-18T00:44:19;11.50;99.90
2999;DHT22;1509;51.964;7.628;2023-03-18T00:46:45;11.50;99.90
2999;DHT22;1509;51.964;7.628;2023-03-18T00:49:11;11.50;99.90
2999;DHT22;1509;51.964;7.628;2023-03-18T00:51:37;11.50;99.90
2999;DHT22;1509;51.964;7.628;2023-03-18T00:54:07;11.40;99.90
2999;DHT22;1509;51.964;7.628;2023-03-18T00:56:35;11.40;99.90
2999;DHT22;1509;51.964;7.628;2023-03-18T00:59:05;11.40;99.90
2999;DHT22;1509;51.964;7.628;2023-03-18T01:01:31;11.40;99.90
2999;DHT22;1509;51.964;7.628;2023-03-18T01:03:57;11.40;99.90
2999;DHT22;1509;51.964;7.628;2023-03-18T01:06:28;11.40;99.90
2999;DHT22;1509;51.964;7.628;2023-03-18T01:08:54;11.40;99.90
2999;DHT22;1509;51.964;7.628;2023-03-18T01:11:24;11.50;99.90
2999;DHT22;1509;51.964;7.628;2023-03-18T01:13:50;11.30;99.90
2999;DHT22;1509;51.964;7.628;2023-03-18T01:16:16;11.30;99.90
2999;DHT22;1509;51.964;7.628;2023-03-18T01:18:42;11.30;99.90
2999;DHT22;1509;51.964;7.628;2023-03-18T01:21:09;11.40;99.90
2999;DHT22;1509;51.964;7.628;2023-03-18T01:23:35;11.30;99.90
2999;DHT22;1509;51.964;7.628;2023-03-18T01:26:01;11.30;99.90
2999;DHT22;1509;51.964;7.628;2023-03-18T01:28:28;11.40;99.90
2999;DHT22;1509;51.964;7.628;2023-03-18T01:30:54;11.40;99.90
2999;DHT22;1509;51.964;7.628;2023-03-18T01:33:24;11.40;99.90
2999;DHT22;1509;51.964;7.628;2023-03-18T01:35:55;11.50;99.90
2999;DHT22;1509;51.964;7.628;2023-03-18T01:38:23;11.50;99.90
2999;DHT22;1509;51.964;7.628;2023-03-18T01:40:49;11.60;99.90
2999;DHT22;1509;51.964;7.628;2023-03-18T01:43:25;11.50;99.90
2999;DHT22;1509;51.964;7.628;2023-03-18T01:45:58;11.40;99.90
2999;DHT22;1509;51.964;7.628;2023-03-18T01:48:26;11.70;99.90
2999;DHT22;1509;51.964;7.628;2023-03-18T01:50:58;11.70;99.90
2999;DHT22;1509;51.964;7.628;2023-03-18T01:53:28;11.70;99.90
2999;DHT22;1509;51.964;7.628;2023-03-18T01:55:55;11.70;99.90
2999;DHT22;1509;51.964;7.628;2023-03-18T01:58:35;11.70;99.90
2999;DHT22;1509;51.964;7.628;2023-03-18T02:01:26;11.70;99.90
2999;DHT22;1509;51.964;7.628;2023-03-18T02:03:55;11.70;99.90
2999;DHT22;1509;51.964;7.628;2023-03-18T02:06:22;11.70;99.90
2999;DHT22;1509;51.964;7.628;2023-03-18T02:08:48;11.70;99.90
2999;DHT22;1509;51.964;7.628;2023-03-18T02:11:14;11.70;99.90
2999;DHT22;1509;51.964;7.628;2023-03-18T02:13:43;11.60;99.90
2999;DHT22;1509;51.964;7.628;2023-03-18T02:16:23;11.60;99.90
2999;DHT22;1509;51.964;7.628;2023-03-18T02:18:56;11.60;99.90
2999;DHT22;1509;51.964;7.628;2023-03-18T02:24:51;11.60;99.90
2999;DHT22;1509;51.964;7.628;2023-03-18T02:27:25;11.60;99.90
2999;DHT22;1509;51.964;7.628;2023-03-18T02:29:55;11.50;99.90
2999;DHT22;1509;51.964;7.628;2023-03-18T02:32:26;11.60;99.90
2999;DHT22;1509;51.964;7.628;2023-03-18T02:34:53;11.50;99.90
2999;DHT22;1509;51.964;7.628;2023-03-18T02:37:19;11.40;99.90
2999;DHT22;1509;51.964;7.628;2023-03-18T02:39:45;11.40;99.90
2999;DHT22;1509;51.964;7.628;2023-03-18T02:42:12;11.30;99.90
2999;DHT22;1509;51.964;7.628;2023-03-18T02:44:44;11.40;99.90
2999;DHT22;1509;51.964;7.628;2023-03-18T02:47:21;11.40;99.90
2999;DHT22;1509;51.964;7.628;2023-03-18T02:49:49;11.30;99.90
2999;DHT22;1509;51.964;7.628;2023-03-18T02:52:16;11.30;99.90
2999;DHT22;1509;51.964;7.628;2023-03-18T02:54:41;11.30;99.90
2999;DHT22;1509;51.964;7.628;2023-03-18T02:57:07;11.30;99.90
2999;DHT22;1509;51.964;7.628;2023-03-18T02:59:33;11.30;99.90
2999;DHT22;1509;51.964;7.628;2023-03-18T03:01:59;11.30;99.90
2999;DHT22;1509;51.964;7.628;2023-03-18T03:04:25;11.30;99.90
2999;DHT22;1509;51.964;7.628;2023-03-18T03:06:52;11.30;99.90
2999;DHT22;1509;51.964;7.628;2023-03-18T03:09:18;11.20;99.90
2999;DHT22;1509;51.964;7.628;2023-03-18T03:11:46;11.30;99.90
2999;DHT22;1509;51.964;7.628;2023-03-18T03:14:13;11.30;99.90
2999;DHT22;1509;51.964;7.628;2023-03-18T03:16:39;11.30;99.90
2999;DHT22;1509;51.964;7.628;2023-03-18T03:19:05;11.30;99.90
2999;DHT22;1509;51.964;7.628;2023-03-18T03:21:32;11.40;99.90
2999;DHT22;1509;51.964;7.628;2023-03-18T03:24:01;11.40;99.90
2999;DHT22;1509;51.964;7.628;2023-03-18T03:26:27;11.30;99.90
2999;DHT22;1509;51.964;7.628;2023-03-18T03:28:53;11.40;99.90
2999;DHT22;1509;51.964;7.628;2023-03-18T03:31:18;11.30;99.90
2999;DHT22;1509;51.964;7.628;2023-03-18T03:33:44;11.60;99.90
2999;DHT22;1509;51.964;7.628;2023-03-18T03:36:12;11.30;99.90
2999;DHT22;1509;51.964;7.628;2023-03-18T03:38:38;11.40;99.90
2999;DHT22;1509;51.964;7.628;2023-03-18T03:41:08;11.40;99.90
2999;DHT22;1509;51.964;7.628;2023-03-18T03:43:36;11.60;99.90
2999;DHT22;1509;51.964;7.628;2023-03-18T03:46:02;11.40;99.90
2999;DHT22;1509;51.964;7.628;2023-03-18T03:48:28;11.40;99.90
2999;DHT22;1509;51.964;7.628;2023-03-18T03:50:53;11.60;99.90
2999;DHT22;1509;51.964;7.628;2023-03-18T03:53:20;11.50;99.90
2999;DHT22;1509;51.964;7.628;2023-03-18T03:55:45;11.50;99.90
2999;DHT22;1509;51.964;7.628;2023-03-18T03:58:11;11.50;99.90
2999;DHT22;1509;51.964;7.628;2023-03-18T04:00:37;11.40;99.90
2999;DHT22;1509;51.964;7.628;2023-03-18T04:03:02;11.30;99.90
2999;DHT22;1509;51.964;7.628;2023-03-18T04:05:29;11.30;99.90
2999;DHT22;1509;51.964;7.628;2023-03-18T04:07:55;11.60;99.90
2999;DHT22;1509;51.964;7.628;2023-03-18T04:10:25;11.20;99.90
2999;DHT22;1509;51.964;7.628;2023-03-18T04:12:52;11.20;99.90
2999;DHT22;1509;51.964;7.628;2023-03-18T04:15:19;11.10;99.90
2999;DHT22;1509;51.964;7.628;2023-03-18T04:17:47;11.10;99.90
2999;DHT22;1509;51.964;7.628;2023-03-18T04:20:13;11.10;99.90
2999;DHT22;1509;51.964;7.628;2023-03-18T04:22:40;11.20;99.90
2999;DHT22;1509;51.964;7.628;2023-03-18T04:25:06;11.20;99.90
2999;DHT22;1509;51.964;7.628;2023-03-18T04:27:33;11.20;99.90
2999;DHT22;1509;51.964;7.628;2023-03-18T04:29:58;11.20;99.90
2999;DHT22;1509;51.964;7.628;2023-03-18T04:32:25;11.50;99.90
2999;DHT22;1509;51.964;7.628;2023-03-18T04:34:50;11.30;99.90
2999;DHT22;1509;51.964;7.628;2023-03-18T04:37:16;11.10;99.90
2999;DHT22;1509;51.964;7.628;2023-03-18T04:39:47;11.20;99.90
2999;DHT22;1509;51.964;7.628;2023-03-18T04:42:13;11.20;99.90
2999;DHT22;1509;51.964;7.628;2023-03-18T04:44:39;11.20;99.90
2999;DHT22;1509;51.964;7.628;2023-03-18T04:47:05;11.20;99.90
2999;DHT22;1509;51.964;7.628;2023-03-18T04:49:35;11.40;99.90
2999;DHT22;1509;51.964;7.628;2023-03-18T04:52:02;11.20;99.90
2999;DHT22;1509;51.964;7.628;2023-03-18T04:54:32;11.10;99.90
2999;DHT22;1509;51.964;7.628;2023-03-18T04:56:57;11.20;99.90
2999;DHT22;1509;51.964;7.628;2023-03-18T04:59:26;11.30;99.90
2999;DHT22;1509;51.964;7.628;2023-03-18T05:01:55;11.10;99.90
2999;DHT22;1509;51.964;7.628;2023-03-18T05:04:20;11.20;99.90
2999;DHT22;1509;51.964;7.628;2023-03-18T05:06:46;11.50;99.90
2999;DHT22;1509;51.964;7.628;2023-03-18T05:09:12;10.90;99.90
2999;DHT22;1509;51.964;7.628;2023-03-18T05:11:40;11.20;99.90
2999;DHT22;1509;51.964;7.628;2023-03-18T05:14:06;11.50;99.90
2999;DHT22;1509;51.964;7.628;2023-03-18T05:16:32;11.30;99.90
2999;DHT22;1509;51.964;7.628;2023-03-18T05:18:58;11.30;99.90
2999;DHT22;1509;51.964;7.628;2023-03-18T05:21:23;11.30;99.90
2999;DHT22;1509;51.964;7.628;2023-03-18T05:23:49;11.30;99.90
2999;DHT22;1509;51.964;7.628;2023-03-18T05:26:18;11.20;99.90
2999;DHT22;1509;51.964;7.628;2023-03-18T05:28:47;11.30;99.90
2999;DHT22;1509;51.964;7.628;2023-03-18T05:31:13;11.30;99.90
2999;DHT22;1509;51.964;7.628;2023-03-18T05:33:38;11.30;99.90
2999;DHT22;1509;51.964;7.628;2023-03-18T05:36:06;11.30;99.90
2999;DHT22;1509;51.964;7.628;2023-03-18T05:38:33;11.30;99.90
2999;DHT22;1509;51.964;7.628;2023-03-18T05:40:59;11.20;99.90
2999;DHT22;1509;51.964;7.628;2023-03-18T05:43:25;11.40;99.90
2999;DHT22;1509;51.964;7.628;2023-03-18T05:45:52;11.20;99.90
2999;DHT22;1509;51.964;7.628;2023-03-18T05:48:18;11.10;99.90
2999;DHT22;1509;51.964;7.628;2023-03-18T05:50:44;11.10;99.90
2999;DHT22;1509;51.964;7.628;2023-03-18T05:53:11;11.10;99.90
2999;DHT22;1509;51.964;7.628;2023-03-18T05:55:38;11.10;99.90
2999;DHT22;1509;51.964;7.628;2023-03-18T05:58:05;11.10;99.90
2999;DHT22;1509;51.964;7.628;2023-03-18T06:00:33;11.10;99.90
2999;DHT22;1509;51.964;7.628;2023-03-18T06:02:59;11.10;99.90
2999;DHT22;1509;51.964;7.628;2023-03-18T06:05:26;11.20;99.90
2999;DHT22;1509;51.964;7.628;2023-03-18T06:07:55;11.40;99.90
2999;DHT22;1509;51.964;7.628;2023-03-18T06:10:22;11.20;99.90
2999;DHT22;1509;51.964;7.628;2023-03-18T06:12:55;11.20;99.90
2999;DHT22;1509;51.964;7.628;2023-03-18T06:15:21;11.20;99.90
2999;DHT22;1509;51.964;7.628;2023-03-18T06:17:47;11.40;99.90
2999;DHT22;1509;51.964;7.628;2023-03-18T06:20:13;11.40;99.90
2999;DHT22;1509;51.964;7.628;2023-03-18T06:22:40;11.30;99.90
2999;DHT22;1509;51.964;7.628;2023-03-18T06:25:07;11.30;99.90
2999;DHT22;1509;51.964;7.628;2023-03-18T06:27:33;11.30;99.90
2999;DHT22;1509;51.964;7.628;2023-03-18T06:29:59;11.40;99.90
2999;DHT22;1509;51.964;7.628;2023-03-18T06:32:28;11.50;99.90
2999;DHT22;1509;51.964;7.628;2023-03-18T06:34:54;11.40;99.90
2999;DHT22;1509;51.964;7.628;2023-03-18T06:37:26;11.60;99.90
2999;DHT22;1509;51.964;7.628;2023-03-18T06:39:52;11.70;99.90
2999;DHT22;1509;51.964;7.628;2023-03-18T06:42:18;11.70;99.90
2999;DHT22;1509;51.964;7.628;2023-03-18T06:44:44;11.80;99.90
2999;DHT22;1509;51.964;7.628;2023-03-18T06:47:18;11.80;99.90
2999;DHT22;1509;51.964;7.628;2023-03-18T06:49:49;11.80;99.90
2999;DHT22;1509;51.964;7.628;2023-03-18T06:52:17;11.70;99.90
2999;DHT22;1509;51.964;7.628;2023-03-18T06:54:44;11.60;99.90
2999;DHT22;1509;51.964;7.628;2023-03-18T06:57:10;11.70;99.90
2999;DHT22;1509;51.964;7.628;2023-03-18T06:59:36;11.60;99.90
2999;DHT22;1509;51.964;7.628;2023-03-18T07:02:03;11.50;99.90
2999;DHT22;1509;51.964;7.628;2023-03-18T07:04:30;11.70;99.90
2999;DHT22;1509;51.964;7.628;2023-03-18T07:06:55;11.80;99.90
2999;DHT22;1509;51.964;7.628;2023-03-18T07:09:22;11.90;99.90
2999;DHT22;1509;51.964;7.628;2023-03-18T07:11:49;11.90;99.90
2999;DHT22;1509;51.964;7.628;2023-03-18T07:14:18;11.90;99.90
2999;DHT22;1509;51.964;7.628;2023-03-18T07:16:44;11.80;99.90
2999;DHT22;1509;51.964;7.628;2023-03-18T07:19:11;11.80;99.90
2999;DHT22;1509;51.964;7.628;2023-03-18T07:21:37;11.80;99.90
2999;DHT22;1509;51.964;7.628;2023-03-18T07:24:04;11.80;99.90
2999;DHT22;1509;51.964;7.628;2023-03-18T07:26:32;11.90;99.90
2999;DHT22;1509;51.964;7.628;2023-03-18T07:28:58;11.90;99.90
2999;DHT22;1509;51.964;7.628;2023-03-18T07:31:24;11.80;99.90
2999;DHT22;1509;51.964;7.628;2023-03-18T07:33:50;11.80;99.90
2999;DHT22;1509;51.964;7.628;2023-03-18T07:36:16;11.90;99.90
2999;DHT22;1509;51.964;7.628;2023-03-18T07:38:42;11.90;99.90
2999;DHT22;1509;51.964;7.628;2023-03-18T07:41:08;12.00;99.90
2999;DHT22;1509;51.964;7.628;2023-03-18T07:43:33;12.30;99.90
2999;DHT22;1509;51.964;7.628;2023-03-18T07:45:59;12.10;99.90
2999;DHT22;1509;51.964;7.628;2023-03-18T07:48:30;12.20;99.90
2999;DHT22;1509;51.964;7.628;2023-03-18T07:50:56;12.30;99.90
2999;DHT22;1509;51.964;7.628;2023-03-18T07:53:25;12.30;99.90
2999;DHT22;1509;51.964;7.628;2023-03-18T07:58:27;12.40;99.90
2999;DHT22;1509;51.964;7.628;2023-03-18T08:00:53;12.50;99.90
2999;DHT22;1509;51.964;7.628;2023-03-18T08:03:22;12.60;99.90
2999;DHT22;1509;51.964;7.628;2023-03-18T08:05:48;12.70;99.90
2999;DHT22;1509;51.964;7.628;2023-03-18T08:08:14;12.60;99.90
2999;DHT22;1509;51.964;7.628;2023-03-18T08:10:40;12.90;99.90
2999;DHT22;1509;51.964;7.628;2023-03-18T08:13:05;13.20;99.90
2999;DHT22;1509;51.964;7.628;2023-03-18T08:15:31;13.00;99.90
2999;DHT22;1509;51.964;7.628;2023-03-18T08:18:00;13.00;99.90
2999;DHT22;1509;51.964;7.628;2023-03-18T08:20:26;13.20;99.90
2999;DHT22;1509;51.964;7.628;2023-03-18T08:22:54;13.30;99.90
2999;DHT22;1509;51.964;7.628;2023-03-18T08:25:23;13.30;99.90
2999;DHT22;1509;51.964;7.628;2023-03-18T08:27:52;13.50;99.90
2999;DHT22;1509;51.964;7.628;2023-03-18T08:30:21;13.30;99.90
2999;DHT22;1509;51.964;7.628;2023-03-18T08:32:54;13.30;99.90
2999;DHT22;1509;51.964;7.628;2023-03-18T08:35:20;13.20;99.90
2999;DHT22;1509;51.964;7.628;2023-03-18T08:37:49;13.20;99.90
2999;DHT22;1509;51.964;7.628;2023-03-18T08:40:16;13.20;99.90
2999;DHT22;1509;51.964;7.628;2023-03-18T08:42:43;13.00;99.90
2999;DHT22;1509;51.964;7.628;2023-03-18T08:45:10;13.10;99.90
2999;DHT22;1509;51.964;7.628;2023-03-18T08:47:41;13.40;99.90
2999;DHT22;1509;51.964;7.628;2023-03-18T08:50:32;14.50;99.90
2999;DHT22;1509;51.964;7.628;2023-03-18T08:53:05;14.90;99.90
2999;DHT22;1509;51.964;7.628;2023-03-18T08:55:36;15.00;99.90
2999;DHT22;1509;51.964;7.628;2023-03-18T08:58:13;15.00;99.90
2999;DHT22;1509;51.964;7.628;2023-03-18T09:00:43;14.80;99.90
2999;DHT22;1509;51.964;7.628;2023-03-18T09:03:10;14.80;99.90
2999;DHT22;1509;51.964;7.628;2023-03-18T09:05:36;14.40;99.90
2999;DHT22;1509;51.964;7.628;2023-03-18T09:08:03;14.20;99.90
2999;DHT22;1509;51.964;7.628;2023-03-18T09:10:29;14.10;99.90
2999;DHT22;1509;51.964;7.628;2023-03-18T09:13:04;14.00;99.90
2999;DHT22;1509;51.964;7.628;2023-03-18T09:15:30;14.10;99.90
2999;DHT22;1509;51.964;7.628;2023-03-18T09:17:56;14.40;99.90
2999;DHT22;1509;51.964;7.628;2023-03-18T09:20:25;14.70;99.90
2999;DHT22;1509;51.964;7.628;2023-03-18T09:22:54;15.00;99.90
2999;DHT22;1509;51.964;7.628;2023-03-18T09:25:22;15.40;99.90
2999;DHT22;1509;51.964;7.628;2023-03-18T09:27:49;15.90;99.90
2999;DHT22;1509;51.964;7.628;2023-03-18T09:30:26;16.40;99.90
2999;DHT22;1509;51.964;7.628;2023-03-18T09:32:55;16.80;99.90
2999;DHT22;1509;51.964;7.628;2023-03-18T09:35:23;17.40;99.90
2999;DHT22;1509;51.964;7.628;2023-03-18T09:37:50;18.40;99.90
2999;DHT22;1509;51.964;7.628;2023-03-18T09:40:36;18.90;99.90
2999;DHT22;1509;51.964;7.628;2023-03-18T09:43:29;18.80;99.90
2999;DHT22;1509;51.964;7.628;2023-03-18T09:46:09;19.20;99.90
2999;DHT22;1509;51.964;7.628;2023-03-18T09:48:59;20.20;99.90
2999;DHT22;1509;51.964;7.628;2023-03-18T09:51:46;21.40;99.90
2999;DHT22;1509;51.964;7.628;2023-03-18T09:54:48;22.20;99.90
2999;DHT22;1509;51.964;7.628;2023-03-18T09:57:32;21.60;99.90
2999;DHT22;1509;51.964;7.628;2023-03-18T10:00:08;20.50;99.90
2999;DHT22;1509;51.964;7.628;2023-03-18T10:02:45;18.90;99.90
2999;DHT22;1509;51.964;7.628;2023-03-18T10:05:16;18.20;99.90
2999;DHT22;1509;51.964;7.628;2023-03-18T10:07:45;17.30;99.90
2999;DHT22;1509;51.964;7.628;2023-03-18T10:10:31;16.50;99.90
2999;DHT22;1509;51.964;7.628;2023-03-18T10:15:56;16.50;99.90
2999;DHT22;1509;51.964;7.628;2023-03-18T10:18:43;16.40;99.90
2999;DHT22;1509;51.964;7.628;2023-03-18T10:21:51;16.20;99.90
2999;DHT22;1509;51.964;7.628;2023-03-18T10:24:31;15.70;99.90
2999;DHT22;1509;51.964;7.628;2023-03-18T10:38:04;18.00;99.90
2999;DHT22;1509;51.964;7.628;2023-03-18T10:40:40;17.30;99.90
2999;DHT22;1509;51.964;7.628;2023-03-18T10:43:19;16.60;99.90
2999;DHT22;1509;51.964;7.628;2023-03-18T10:45:49;16.30;99.90
2999;DHT22;1509;51.964;7.628;2023-03-18T10:54:08;18.70;99.90
2999;DHT22;1509;51.964;7.628;2023-03-18T10:56:36;20.50;99.90
2999;DHT22;1509;51.964;7.628;2023-03-18T10:59:14;21.30;99.90
2999;DHT22;1509;51.964;7.628;2023-03-18T11:04:15;19.30;99.90
2999;DHT22;1509;51.964;7.628;2023-03-18T11:09:16;18.10;99.90
2999;DHT22;1509;51.964;7.628;2023-03-18T11:11:47;19.30;99.90
2999;DHT22;1509;51.964;7.628;2023-03-18T11:14:20;20.10;99.90
2999;DHT22;1509;51.964;7.628;2023-03-18T11:17:00;20.10;99.90
2999;DHT22;1509;51.964;7.628;2023-03-18T11:19:32;19.80;99.90
2999;DHT22;1509;51.964;7.628;2023-03-18T11:24:38;18.10;99.90
2999;DHT22;1509;51.964;7.628;2023-03-18T11:29:44;18.00;99.90
2999;DHT22;1509;51.964;7.628;2023-03-18T11:32:32;18.20;99.90
2999;DHT22;1509;51.964;7.628;2023-03-18T11:35:06;19.30;99.90
2999;DHT22;1509;51.964;7.628;2023-03-18T11:37:39;20.50;99.90
2999;DHT22;1509;51.964;7.628;2023-03-18T11:40:26;21.60;99.90
2999;DHT22;1509;51.964;7.628;2023-03-18T11:43:11;20.80;99.90
2999;DHT22;1509;51.964;7.628;2023-03-18T11:45:48;20.10;99.90
2999;DHT22;1509;51.964;7.628;2023-03-18T11:59:05;21.70;99.90
2999;DHT22;1509;51.964;7.628;2023-03-18T12:01:58;21.00;99.90
2999;DHT22;1509;51.964;7.628;2023-03-18T12:05:15;22.20;99.90
2999;DHT22;1509;51.964;7.628;2023-03-18T12:10:24;24.80;99.90
2999;DHT22;1509;51.964;7.628;2023-03-18T12:22:24;27.30;99.90
2999;DHT22;1509;51.964;7.628;2023-03-18T12:25:05;26.40;99.90
2999;DHT22;1509;51.964;7.628;2023-03-18T12:27:47;25.50;99.90
2999;DHT22;1509;51.964;7.628;2023-03-18T12:39:55;22.30;99.90
2999;DHT22;1509;51.964;7.628;2023-03-18T12:45:24;22.30;99.90
2999;DHT22;1509;51.964;7.628;2023-03-18T12:48:20;23.10;99.90
2999;DHT22;1509;51.964;7.628;2023-03-18T12:51:05;23.20;99.90
2999;DHT22;1509;51.964;7.628;2023-03-18T12:53:40;22.90;99.90
2999;DHT22;1509;51.964;7.628;2023-03-18T12:56:17;22.50;99.90
2999;DHT22;1509;51.964;7.628;2023-03-18T12:58:54;22.30;99.90
2999;DHT22;1509;51.964;7.628;2023-03-18T13:01:41;22.10;99.90
2999;DHT22;1509;51.964;7.628;2023-03-18T13:04:18;23.20;99.90
2999;DHT22;1509;51.964;7.628;2023-03-18T13:06:59;24.00;99.90
2999;DHT22;1509;51.964;7.628;2023-03-18T13:09:47;24.30;99.90
2999;DHT22;1509;51.964;7.628;2023-03-18T13:12:21;25.10;99.90
2999;DHT22;1509;51.964;7.628;2023-03-18T13:15:39;24.10;99.90
2999;DHT22;1509;51.964;7.628;2023-03-18T13:17:50;24.30;99.90
2999;DHT22;1509;51.964;7.628;2023-03-18T13:20:29;24.30;99.90
2999;DHT22;1509;51.964;7.628;2023-03-18T13:23:24;24.40;99.90
2999;DHT22;1509;51.964;7.628;2023-03-18T13:42:29;20.60;99.90
2999;DHT22;1509;51.964;7.628;2023-03-18T13:45:01;20.30;99.90
2999;DHT22;1509;51.964;7.628;2023-03-18T13:47:32;20.20;99.90
2999;DHT22;1509;51.964;7.628;2023-03-18T13:52:46;19.60;99.90
2999;DHT22;1509;51.964;7.628;2023-03-18T13:55:33;19.50;99.90
2999;DHT22;1509;51.964;7.628;2023-03-18T13:58:17;19.50;99.90
2999;DHT22;1509;51.964;7.628;2023-03-18T14:14:04;20.70;99.90
2999;DHT22;1509;51.964;7.628;2023-03-18T14:21:29;19.10;99.90
2999;DHT22;1509;51.964;7.628;2023-03-18T14:26:30;18.90;99.90
2999;DHT22;1509;51.964;7.628;2023-03-18T14:29:15;19.00;99.90
2999;DHT22;1509;51.964;7.628;2023-03-18T14:37:17;18.60;99.90
2999;DHT22;1509;51.964;7.628;2023-03-18T14:39:47;18.90;99.90
2999;DHT22;1509;51.964;7.628;2023-03-18T14:42:31;19.20;99.90
2999;DHT22;1509;51.964;7.628;2023-03-18T14:45:13;19.20;99.90
2999;DHT22;1509;51.964;7.628;2023-03-18T14:47:48;19.10;99.90
2999;DHT22;1509;51.964;7.628;2023-03-18T14:52:49;19.20;99.90
2999;DHT22;1509;51.964;7.628;2023-03-18T14:55:23;19.40;99.90
2999;DHT22;1509;51.964;7.628;2023-03-18T14:57:50;19.40;99.90
2999;DHT22;1509;51.964;7.628;2023-03-18T15:00:19;19.40;99.90
2999;DHT22;1509;51.964;7.628;2023-03-18T15:02:57;19.40;99.90
2999;DHT22;1509;51.964;7.628;2023-03-18T15:05:25;19.00;99.90
2999;DHT22;1509;51.964;7.628;2023-03-18T15:07:53;18.70;99.90
2999;DHT22;1509;51.964;7.628;2023-03-18T15:10:24;18.70;99.90
2999;DHT22;1509;51.964;7.628;2023-03-18T15:13:06;18.60;99.90
2999;DHT22;1509;51.964;7.628;2023-03-18T15:15:36;18.40;99.90
2999;DHT22;1509;51.964;7.628;2023-03-18T15:18:32;18.20;99.90
2999;DHT22;1509;51.964;7.628;2023-03-18T15:21:32;18.20;99.90
2999;DHT22;1509;51.964;7.628;2023-03-18T15:24:01;18.30;99.90
2999;DHT22;1509;51.964;7.628;2023-03-18T15:26:39;18.50;99.90
2999;DHT22;1509;51.964;7.628;2023-03-18T15:29:35;18.40;99.90
2999;DHT22;1509;51.964;7.628;2023-03-18T15:34:44;18.40;99.90
2999;DHT22;1509;51.964;7.628;2023-03-18T15:37:30;18.30;99.90
2999;DHT22;1509;51.964;7.628;2023-03-18T15:40:14;18.20;99.90
2999;DHT22;1509;51.964;7.628;2023-03-18T15:42:43;18.20;99.90
2999;DHT22;1509;51.964;7.628;2023-03-18T15:45:17;18.10;99.90
2999;DHT22;1509;51.964;7.628;2023-03-18T15:47:43;17.90;99.90
2999;DHT22;1509;51.964;7.628;2023-03-18T15:50:26;18.00;99.90
2999;DHT22;1509;51.964;7.628;2023-03-18T15:53:04;17.80;99.90
2999;DHT22;1509;51.964;7.628;2023-03-18T15:55:45;17.70;99.90
2999;DHT22;1509;51.964;7.628;2023-03-18T15:58:34;17.70;99.90
2999;DHT22;1509;51.964;7.628;2023-03-18T16:01:00;17.50;99.90
2999;DHT22;1509;51.964;7.628;2023-03-18T16:03:27;17.30;99.90
2999;DHT22;1509;51.964;7.628;2023-03-18T16:05:56;16.90;99.90
2999;DHT22;1509;51.964;7.628;2023-03-18T16:08:22;16.40;99.90
2999;DHT22;1509;51.964;7.628;2023-03-18T16:10:53;15.10;99.90
2999;DHT22;1509;51.964;7.628;2023-03-18T16:13:28;14.10;99.90
2999;DHT22;1509;51.964;7.628;2023-03-18T16:15:57;13.50;99.90
2999;DHT22;1509;51.964;7.628;2023-03-18T16:18:23;12.80;99.90
2999;DHT22;1509;51.964;7.628;2023-03-18T16:20:50;12.70;99.90
2999;DHT22;1509;51.964;7.628;2023-03-18T16:23:20;12.60;99.90
2999;DHT22;1509;51.964;7.628;2023-03-18T16:25:50;12.40;99.90
2999;DHT22;1509;51.964;7.628;2023-03-18T16:28:25;12.50;99.90
2999;DHT22;1509;51.964;7.628;2023-03-18T16:30:54;12.60;99.90
2999;DHT22;1509;51.964;7.628;2023-03-18T16:33:23;12.70;99.90
2999;DHT22;1509;51.964;7.628;2023-03-18T16:35:56;12.60;99.90
2999;DHT22;1509;51.964;7.628;2023-03-18T16:38:26;12.80;99.90
2999;DHT22;1509;51.964;7.628;2023-03-18T16:40:53;12.80;99.90
2999;DHT22;1509;51.964;7.628;2023-03-18T16:43:25;12.70;99.90
2999;DHT22;1509;51.964;7.628;2023-03-18T16:45:53;12.60;99.90
2999;DHT22;1509;51.964;7.628;2023-03-18T16:48:22;12.60;99.90
2999;DHT22;1509;51.964;7.628;2023-03-18T16:50:49;12.60;99.90
2999;DHT22;1509;51.964;7.628;2023-03-18T16:53:19;12.60;99.90
2999;DHT22;1509;51.964;7.628;2023-03-18T16:55:49;12.60;99.90
2999;DHT22;1509;51.964;7.628;2023-03-18T16:58:29;12.60;99.90
2999;DHT22;1509;51.964;7.628;2023-03-18T17:00:57;12.70;99.90
2999;DHT22;1509;51.964;7.628;2023-03-18T17:03:24;12.70;99.90
2999;DHT22;1509;51.964;7.628;2023-03-18T17:05:53;12.60;99.90
2999;DHT22;1509;51.964;7.628;2023-03-18T17:08:20;12.70;99.90
2999;DHT22;1509;51.964;7.628;2023-03-18T17:10:48;12.90;99.90
2999;DHT22;1509;51.964;7.628;2023-03-18T17:13:18;12.90;99.90
2999;DHT22;1509;51.964;7.628;2023-03-18T17:15:44;12.90;99.90
2999;DHT22;1509;51.964;7.628;2023-03-18T17:18:16;12.90;99.90
2999;DHT22;1509;51.964;7.628;2023-03-18T17:20:43;13.10;99.90
2999;DHT22;1509;51.964;7.628;2023-03-18T17:23:24;13.00;99.90
2999;DHT22;1509;51.964;7.628;2023-03-18T17:26:01;13.00;99.90
2999;DHT22;1509;51.964;7.628;2023-03-18T17:30:58;12.60;99.90
2999;DHT22;1509;51.964;7.628;2023-03-18T17:33:27;12.60;99.90
2999;DHT22;1509;51.964;7.628;2023-03-18T17:35:53;12.60;99.90
2999;DHT22;1509;51.964;7.628;2023-03-18T17:38:20;12.60;99.90
2999;DHT22;1509;51.964;7.628;2023-03-18T17:40:52;12.80;99.90
2999;DHT22;1509;51.964;7.628;2023-03-18T17:45:56;12.50;99.90
2999;DHT22;1509;51.964;7.628;2023-03-18T17:48:27;12.50;99.90
2999;DHT22;1509;51.964;7.628;2023-03-18T17:51:07;12.50;99.90
2999;DHT22;1509;51.964;7.628;2023-03-18T17:53:47;12.50;99.90
2999;DHT22;1509;51.964;7.628;2023-03-18T17:56:15;12.50;99.90
2999;DHT22;1509;51.964;7.628;2023-03-18T17:58:47;12.50;99.90
2999;DHT22;1509;51.964;7.628;2023-03-18T18:01:18;12.50;99.90
2999;DHT22;1509;51.964;7.628;2023-03-18T18:03:44;12.50;99.90
2999;DHT22;1509;51.964;7.628;2023-03-18T18:06:20;12.60;99.90
2999;DHT22;1509;51.964;7.628;2023-03-18T18:08:54;12.50;99.90
2999;DHT22;1509;51.964;7.628;2023-03-18T18:11:31;12.50;99.90
2999;DHT22;1509;51.964;7.628;2023-03-18T18:14:23;12.40;99.90
2999;DHT22;1509;51.964;7.628;2023-03-18T18:16:51;12.40;99.90
2999;DHT22;1509;51.964;7.628;2023-03-18T18:19:18;12.30;99.90
2999;DHT22;1509;51.964;7.628;2023-03-18T18:21:45;12.50;99.90
2999;DHT22;1509;51.964;7.628;2023-03-18T18:24:13;12.40;99.90
2999;DHT22;1509;51.964;7.628;2023-03-18T18:26:42;12.30;99.90
2999;DHT22;1509;51.964;7.628;2023-03-18T18:29:12;12.20;99.90
2999;DHT22;1509;51.964;7.628;2023-03-18T18:31:42;12.20;99.90